createdAt,value
2022-11-26T00:02:31.136Z,5.74
2022-11-26T00:04:59.947Z,5.74
2022-11-26T00:07:30.610Z,5.69
2022-11-26T00:09:59.893Z,5.68
2022-11-26T00:12:31.763Z,5.64
2022-11-26T00:15:10.362Z,5.67
2022-11-26T00:17:38.059Z,5.66
2022-11-26T00:20:07.371Z,5.67
2022-11-26T00:22:40.668Z,5.66
2022-11-26T00:25:14.492Z,5.61
2022-11-26T00:27:42.953Z,5.61
2022-11-26T00:30:22.893Z,5.64
2022-11-26T00:32:50.561Z,5.60
2022-11-26T00:35:19.123Z,5.61
2022-11-26T00:37:54.823Z,5.63
2022-11-26T00:40:33.181Z,5.66
2022-11-26T00:43:02.096Z,5.63
2022-11-26T00:45:31.531Z,5.62
2022-11-26T00:47:59.124Z,5.62
2022-11-26T00:50:28.192Z,5.61
2022-11-26T00:52:56.928Z,5.63
2022-11-26T00:55:32.530Z,5.58
2022-11-26T00:58:00.951Z,5.62
2022-11-26T01:00:33.921Z,5.56
2022-11-26T01:03:02.455Z,5.66
2022-11-26T01:05:33.542Z,5.71
2022-11-26T01:08:15.544Z,5.67
2022-11-26T01:10:43.262Z,5.66
2022-11-26T01:13:11.463Z,5.65
2022-11-26T01:15:39.024Z,5.69
2022-11-26T01:18:14.951Z,5.65
2022-11-26T01:20:43.142Z,5.63
2022-11-26T01:23:12.929Z,5.66
2022-11-26T01:25:41.148Z,5.64
2022-11-26T01:28:15.256Z,5.63
2022-11-26T01:30:43.410Z,5.67
2022-11-26T01:33:10.920Z,5.62
2022-11-26T01:35:38.970Z,5.61
2022-11-26T01:38:06.498Z,5.60
2022-11-26T01:41:09.870Z,5.61
2022-11-26T01:43:44.152Z,5.59
2022-11-26T01:46:19.962Z,5.53
2022-11-26T01:48:49.605Z,5.55
2022-11-26T01:51:21.376Z,5.47
2022-11-26T01:53:56.804Z,5.52
2022-11-26T01:56:41.062Z,5.57
2022-11-26T01:59:14.150Z,5.55
2022-11-26T02:01:42.143Z,5.51
2022-11-26T02:04:23.657Z,5.52
2022-11-26T02:06:52.575Z,5.56
2022-11-26T02:09:20.571Z,5.59
2022-11-26T02:11:49.892Z,5.54
2022-11-26T02:14:22.962Z,5.57
2022-11-26T02:17:08.780Z,5.58
2022-11-26T02:20:04.518Z,5.53
2022-11-26T02:22:50.611Z,5.56
2022-11-26T02:25:46.867Z,5.54
2022-11-26T02:28:17.182Z,5.51
2022-11-26T02:30:53.813Z,5.55
2022-11-26T02:33:41.446Z,5.56
2022-11-26T02:37:01.598Z,5.52
2022-11-26T02:39:30.364Z,5.55
2022-11-26T02:42:02.367Z,5.57
2022-11-26T02:44:44.934Z,5.58
2022-11-26T02:47:17.648Z,5.61
2022-11-26T02:49:48.404Z,5.65
2022-11-26T02:52:18.750Z,5.62
2022-11-26T02:54:49.097Z,5.56
2022-11-26T02:57:21.402Z,5.44
2022-11-26T02:59:49.293Z,5.47
2022-11-26T03:02:25.710Z,5.43
2022-11-26T03:04:56.193Z,5.42
2022-11-26T03:07:24.224Z,5.47
2022-11-26T03:09:58.280Z,5.48
2022-11-26T03:12:26.840Z,5.47
2022-11-26T03:14:55.317Z,5.42
2022-11-26T03:17:23.027Z,5.48
2022-11-26T03:19:51.114Z,5.47
2022-11-26T03:22:18.621Z,5.44
2022-11-26T03:24:46.407Z,5.46
2022-11-26T03:27:13.906Z,5.41
2022-11-26T03:29:41.438Z,5.43
2022-11-26T03:32:09.423Z,5.44
2022-11-26T03:34:37.436Z,5.49
2022-11-26T03:37:05.134Z,5.56
2022-11-26T03:39:32.709Z,5.52
2022-11-26T03:42:00.379Z,5.41
2022-11-26T03:44:27.866Z,5.36
2022-11-26T03:46:55.589Z,5.36
2022-11-26T03:49:23.322Z,5.33
2022-11-26T03:51:52.442Z,5.35
2022-11-26T03:54:20.028Z,5.41
2022-11-26T03:56:47.859Z,5.41
2022-11-26T03:59:15.411Z,5.41
2022-11-26T04:01:42.989Z,5.42
2022-11-26T04:04:10.583Z,5.40
2022-11-26T04:06:38.360Z,5.40
2022-11-26T04:09:05.910Z,5.42
2022-11-26T04:11:33.965Z,5.44
2022-11-26T04:14:01.990Z,5.48
2022-11-26T04:16:29.787Z,5.39
2022-11-26T04:18:57.379Z,5.35
2022-11-26T04:21:26.391Z,5.36
2022-11-26T04:23:53.879Z,5.39
2022-11-26T04:26:21.644Z,5.42
2022-11-26T04:28:50.695Z,5.42
2022-11-26T04:31:18.319Z,5.41
2022-11-26T04:33:47.372Z,5.42
2022-11-26T04:36:15.053Z,5.42
2022-11-26T04:38:42.842Z,5.40
2022-11-26T04:41:10.407Z,5.40
2022-11-26T04:43:38.863Z,5.37
2022-11-26T04:46:07.468Z,5.32
2022-11-26T04:48:36.226Z,5.33
2022-11-26T04:51:04.022Z,5.36
2022-11-26T04:53:31.548Z,5.31
2022-11-26T04:55:59.384Z,5.30
2022-11-26T04:58:30.266Z,5.27
2022-11-26T05:00:57.886Z,5.34
2022-11-26T05:03:25.378Z,5.35
2022-11-26T05:05:53.127Z,5.42
2022-11-26T05:08:20.692Z,5.44
2022-11-26T05:10:53.418Z,5.46
2022-11-26T05:13:21.005Z,5.42
2022-11-26T05:15:48.750Z,5.38
2022-11-26T05:18:16.464Z,5.36
2022-11-26T05:20:43.974Z,5.34
2022-11-26T05:23:11.769Z,5.32
2022-11-26T05:25:39.310Z,5.28
2022-11-26T05:28:06.788Z,5.35
2022-11-26T05:30:34.933Z,5.42
2022-11-26T05:33:02.731Z,5.43
2022-11-26T05:35:30.734Z,5.44
2022-11-26T05:37:58.209Z,5.46
2022-11-26T05:40:26.819Z,5.40
2022-11-26T05:42:54.363Z,5.39
2022-11-26T05:45:21.915Z,5.40
2022-11-26T05:47:49.591Z,5.39
2022-11-26T05:50:17.901Z,5.46
2022-11-26T05:52:47.356Z,5.43
2022-11-26T05:55:16.585Z,5.40
2022-11-26T05:57:44.436Z,5.34
2022-11-26T06:00:13.693Z,5.35
2022-11-26T06:02:42.538Z,5.33
2022-11-26T06:05:10.763Z,5.35
2022-11-26T06:07:44.593Z,5.39
2022-11-26T06:10:13.840Z,5.36
2022-11-26T06:12:41.675Z,5.34
2022-11-26T06:15:10.429Z,5.39
2022-11-26T06:17:37.995Z,5.35
2022-11-26T06:20:06.599Z,5.30
2022-11-26T06:22:40.147Z,5.32
2022-11-26T06:25:10.251Z,5.36
2022-11-26T06:27:42.723Z,5.34
2022-11-26T06:30:14.234Z,5.31
2022-11-26T06:32:41.916Z,5.30
2022-11-26T06:35:10.073Z,5.36
2022-11-26T06:37:37.773Z,5.31
2022-11-26T06:40:05.984Z,5.37
2022-11-26T06:42:33.812Z,5.41
2022-11-26T06:45:01.510Z,5.43
2022-11-26T06:47:29.044Z,5.40
2022-11-26T06:49:56.607Z,5.41
2022-11-26T06:52:24.127Z,5.44
2022-11-26T06:54:51.783Z,5.44
2022-11-26T06:57:19.333Z,5.43
2022-11-26T06:59:46.917Z,5.44
2022-11-26T07:02:14.446Z,5.44
2022-11-26T07:04:41.979Z,5.53
2022-11-26T07:07:09.706Z,5.53
2022-11-26T07:09:39.304Z,5.60
2022-11-26T07:12:07.563Z,5.61
2022-11-26T07:14:35.697Z,5.46
2022-11-26T07:17:03.356Z,5.43
2022-11-26T07:19:30.865Z,5.41
2022-11-26T07:21:58.378Z,5.41
2022-11-26T07:24:26.063Z,5.47
2022-11-26T07:26:53.856Z,5.50
2022-11-26T07:29:21.293Z,5.60
2022-11-26T07:31:49.058Z,5.52
2022-11-26T07:34:16.836Z,5.59
2022-11-26T07:36:45.221Z,5.54
2022-11-26T07:39:12.737Z,5.58
2022-11-26T07:41:40.405Z,5.61
2022-11-26T07:44:13.129Z,5.61
2022-11-26T07:46:44.206Z,5.65
2022-11-26T07:49:11.893Z,5.67
2022-11-26T07:51:40.381Z,5.56
2022-11-26T07:54:08.754Z,5.44
2022-11-26T07:56:36.717Z,5.53
2022-11-26T07:59:04.549Z,5.57
2022-11-26T08:01:33.420Z,5.56
2022-11-26T08:04:04.250Z,5.60
2022-11-26T08:06:33.397Z,5.39
2022-11-26T08:09:02.591Z,5.41
2022-11-26T08:11:32.753Z,5.40
2022-11-26T08:14:03.857Z,5.46
2022-11-26T08:16:32.278Z,5.48
2022-11-26T08:19:02.581Z,5.56
2022-11-26T08:21:30.539Z,5.38
2022-11-26T08:23:58.222Z,5.37
2022-11-26T08:26:35.888Z,5.36
2022-11-26T08:29:04.124Z,5.44
2022-11-26T08:31:32.243Z,5.41
2022-11-26T08:34:01.030Z,5.48
2022-11-26T08:36:30.155Z,5.53
2022-11-26T08:38:59.909Z,5.41
2022-11-26T08:41:27.650Z,5.46
2022-11-26T08:44:10.635Z,5.48
2022-11-26T08:46:40.257Z,5.44
2022-11-26T08:49:10.633Z,5.38
2022-11-26T08:51:38.488Z,5.37
2022-11-26T08:54:07.633Z,5.47
2022-11-26T08:56:35.339Z,5.51
2022-11-26T08:59:03.710Z,5.56
2022-11-26T09:01:33.585Z,5.65
2022-11-26T09:04:04.253Z,5.61
2022-11-26T09:06:34.065Z,5.63
2022-11-26T09:09:14.621Z,5.58
2022-11-26T09:11:54.043Z,5.63
2022-11-26T09:14:26.293Z,5.65
2022-11-26T09:16:59.393Z,5.61
2022-11-26T09:19:29.710Z,5.60
2022-11-26T09:22:01.475Z,5.55
2022-11-26T09:24:29.002Z,5.62
2022-11-26T09:26:56.530Z,5.64
2022-11-26T09:29:25.344Z,5.58
2022-11-26T09:32:23.354Z,5.57
2022-11-26T09:34:41.980Z,5.70
2022-11-26T09:37:09.641Z,5.79
2022-11-26T09:39:37.190Z,5.85
2022-11-26T09:42:11.925Z,5.74
2022-11-26T09:44:46.296Z,5.83
2022-11-26T09:47:43.007Z,5.80
2022-11-26T09:50:20.438Z,5.73
2022-11-26T09:52:56.968Z,5.71
2022-11-26T09:55:28.341Z,5.67
2022-11-26T09:58:06.160Z,5.51
2022-11-26T10:00:40.249Z,5.45
2022-11-26T10:03:25.428Z,5.40
2022-11-26T10:05:57.060Z,5.41
2022-11-26T10:08:47.169Z,5.38
2022-11-26T10:11:33.202Z,5.43
2022-11-26T10:14:24.968Z,5.53
2022-11-26T10:17:07.397Z,5.49
2022-11-26T10:20:02.918Z,5.46
2022-11-26T10:22:57.138Z,5.46
2022-11-26T10:25:29.436Z,5.44
2022-11-26T10:27:59.284Z,5.51
2022-11-26T10:30:29.513Z,5.57
2022-11-26T10:33:02.074Z,5.63
2022-11-26T10:35:30.440Z,5.64
2022-11-26T10:37:58.726Z,5.58
2022-11-26T10:40:30.421Z,5.57
2022-11-26T10:43:08.500Z,5.52
2022-11-26T10:45:43.866Z,5.55
2022-11-26T10:48:27.162Z,5.64
2022-11-26T10:50:59.829Z,5.62
2022-11-26T10:53:30.266Z,5.61
2022-11-26T10:56:01.560Z,5.63
2022-11-26T10:58:33.604Z,5.61
2022-11-26T11:01:06.033Z,5.63
2022-11-26T11:04:10.530Z,5.64
2022-11-26T11:06:42.440Z,5.68
2022-11-26T11:09:36.221Z,5.64
2022-11-26T11:12:19.109Z,5.65
2022-11-26T11:14:50.671Z,5.70
2022-11-26T11:17:36.306Z,5.58
2022-11-26T11:20:27.572Z,5.53
2022-11-26T11:23:45.685Z,5.55
2022-11-26T11:26:21.652Z,5.56
2022-11-26T11:28:54.527Z,5.54
2022-11-26T11:31:27.321Z,5.61
2022-11-26T11:34:19.289Z,5.64
2022-11-26T11:37:25.505Z,5.66
2022-11-26T11:40:06.244Z,5.69
2022-11-26T11:42:33.916Z,5.70
2022-11-26T11:45:04.106Z,5.69
2022-11-26T11:47:43.409Z,5.71
2022-11-26T11:50:20.545Z,5.71
2022-11-26T11:52:59.346Z,5.65
2022-11-26T11:55:32.737Z,5.61
2022-11-26T11:58:06.089Z,5.50
2022-11-26T12:00:51.226Z,5.47
2022-11-26T12:03:24.548Z,5.44
2022-11-26T12:06:10.102Z,5.53
2022-11-26T12:12:21.529Z,5.56
2022-11-26T12:14:56.175Z,5.61
2022-11-26T12:17:43.903Z,5.63
2022-11-26T12:20:34.879Z,5.61
2022-11-26T12:23:24.269Z,5.68
2022-11-26T12:26:15.443Z,5.59
2022-11-26T12:29:02.017Z,5.62
2022-11-26T12:31:39.402Z,5.67
2022-11-26T12:34:31.580Z,5.60
2022-11-26T12:37:04.233Z,5.54
2022-11-26T12:39:50.507Z,5.44
2022-11-26T12:42:42.103Z,5.46
2022-11-26T12:45:28.200Z,5.54
2022-11-26T12:48:03.226Z,5.51
2022-11-26T12:50:50.501Z,5.54
2022-11-26T12:53:44.698Z,5.52
2022-11-26T12:56:44.261Z,5.51
2022-11-26T12:59:11.564Z,5.48
2022-11-26T13:01:39.238Z,5.50
2022-11-26T13:04:37.230Z,5.57
2022-11-26T13:07:00.341Z,5.49
2022-11-26T13:09:52.634Z,5.36
2022-11-26T13:12:27.429Z,5.32
2022-11-26T13:15:22.826Z,5.42
2022-11-26T13:17:51.526Z,5.44
2022-11-26T13:20:28.344Z,5.53
2022-11-26T13:23:11.167Z,5.61
2022-11-26T13:26:15.455Z,5.57
2022-11-26T13:29:30.874Z,5.49
2022-11-26T13:32:36.245Z,5.44
2022-11-26T13:35:12.872Z,5.39
2022-11-26T13:38:17.808Z,5.40
2022-11-26T13:41:33.288Z,5.39
2022-11-26T13:44:20.512Z,5.31
2022-11-26T13:47:10.284Z,5.36
2022-11-26T13:49:57.806Z,5.31
2022-11-26T13:52:51.059Z,5.36
2022-11-26T14:00:50.077Z,5.32
2022-11-26T14:03:46.226Z,5.30
2022-11-26T14:06:14.828Z,5.36
2022-11-26T14:08:46.556Z,5.37
2022-11-26T14:11:41.178Z,5.31
2022-11-26T14:14:23.771Z,5.27
2022-11-26T14:17:01.837Z,5.22
2022-11-26T14:19:55.882Z,5.29
2022-11-26T14:22:23.590Z,5.31
2022-11-26T14:24:51.379Z,5.32
2022-11-26T14:27:26.438Z,5.39
2022-11-26T14:30:02.713Z,5.28
2022-11-26T14:32:42.570Z,5.22
2022-11-26T14:35:34.926Z,5.25
2022-11-26T14:38:06.051Z,5.18
2022-11-26T14:40:38.649Z,5.22
2022-11-26T14:43:20.177Z,5.30
2022-11-26T14:45:59.054Z,5.22
2022-11-26T14:48:28.663Z,5.23
2022-11-26T14:50:59.606Z,5.21
2022-11-26T14:53:32.570Z,5.14
2022-11-26T14:56:00.966Z,5.18
2022-11-26T14:58:42.353Z,5.17
2022-11-26T15:01:15.844Z,5.14
2022-11-26T15:03:54.084Z,5.07
2022-11-26T15:06:29.624Z,5.11
2022-11-26T15:09:27.769Z,5.27
2022-11-26T15:12:05.130Z,5.26
2022-11-26T15:14:46.834Z,5.35
2022-11-26T15:17:18.311Z,5.40
2022-11-26T15:19:46.886Z,5.34
2022-11-26T15:22:49.178Z,5.39
2022-11-26T15:25:28.744Z,5.34
2022-11-26T15:28:06.674Z,5.32
2022-11-26T15:30:38.525Z,5.31
2022-11-26T15:33:13.009Z,5.29
2022-11-26T15:35:41.511Z,5.31
2022-11-26T15:38:20.575Z,5.24
2022-11-26T15:41:05.068Z,5.31
2022-11-26T15:43:41.988Z,5.32
2022-11-26T15:46:23.916Z,5.29
2022-11-26T15:49:20.768Z,5.24
2022-11-26T15:52:06.080Z,5.06
2022-11-26T15:55:04.388Z,5.09
2022-11-26T15:57:35.374Z,5.20
2022-11-26T16:00:18.422Z,5.21
2022-11-26T16:02:47.040Z,5.23
2022-11-26T16:05:28.915Z,5.28
2022-11-26T16:08:24.759Z,5.32
2022-11-26T16:10:58.179Z,5.28
2022-11-26T16:13:34.757Z,5.19
2022-11-26T16:16:08.419Z,5.19
2022-11-26T16:18:43.073Z,5.15
2022-11-26T16:21:18.703Z,5.19
2022-11-26T16:23:58.721Z,5.31
2022-11-26T16:26:27.484Z,5.34
2022-11-26T16:28:55.490Z,5.35
2022-11-26T16:31:23.358Z,5.30
2022-11-26T16:33:50.959Z,5.29
2022-11-26T16:36:30.834Z,5.25
2022-11-26T16:38:58.384Z,5.30
2022-11-26T16:41:26.660Z,5.27
2022-11-26T16:43:54.233Z,5.33
2022-11-26T16:46:23.843Z,5.33
2022-11-26T16:48:52.512Z,5.31
2022-11-26T16:51:21.399Z,5.29
2022-11-26T16:53:49.200Z,5.34
2022-11-26T16:56:24.555Z,5.32
2022-11-26T16:58:53.026Z,5.33
2022-11-26T17:01:21.328Z,5.41
2022-11-26T17:03:48.877Z,5.38
2022-11-26T17:06:26.010Z,5.29
2022-11-26T17:08:55.893Z,5.34
2022-11-26T17:11:24.262Z,5.35
2022-11-26T17:13:52.350Z,5.27
2022-11-26T17:16:21.659Z,5.19
2022-11-26T17:18:50.213Z,5.22
2022-11-26T17:21:17.951Z,5.20
2022-11-26T17:23:45.580Z,5.07
2022-11-26T17:26:22.634Z,5.04
2022-11-26T17:28:50.973Z,5.07
2022-11-26T17:31:18.790Z,5.15
2022-11-26T17:33:46.517Z,5.12
2022-11-26T17:36:17.025Z,5.18
2022-11-26T17:38:45.624Z,5.14
2022-11-26T17:41:15.636Z,4.92
2022-11-26T17:43:43.450Z,5.00
2022-11-26T17:46:22.133Z,5.00
2022-11-26T17:48:54.304Z,4.98
2022-11-26T17:51:24.936Z,4.96
2022-11-26T17:53:52.665Z,4.87
2022-11-26T17:56:23.601Z,4.94
2022-11-26T17:58:51.488Z,4.90
2022-11-26T18:01:19.600Z,4.86
2022-11-26T18:03:47.603Z,4.87
2022-11-26T18:06:18.932Z,4.86
2022-11-26T18:08:46.668Z,4.96
2022-11-26T18:11:19.282Z,4.98
2022-11-26T18:13:47.155Z,5.02
2022-11-26T18:16:14.832Z,5.03
2022-11-26T18:18:42.511Z,4.80
2022-11-26T18:21:12.076Z,4.84
2022-11-26T18:23:41.415Z,4.81
2022-11-26T18:26:16.894Z,4.78
2022-11-26T18:28:44.562Z,4.80
2022-11-26T18:31:12.356Z,4.89
2022-11-26T18:33:41.356Z,4.92
2022-11-26T18:36:09.103Z,4.84
2022-11-26T18:38:38.012Z,4.80
2022-11-26T18:41:06.607Z,4.85
2022-11-26T18:43:37.148Z,4.79
2022-11-26T18:46:07.039Z,4.75
2022-11-26T18:48:39.482Z,4.76
2022-11-26T18:51:07.043Z,4.84
2022-11-26T18:53:35.364Z,4.81
2022-11-26T18:56:15.659Z,4.79
2022-11-26T18:58:43.912Z,4.73
2022-11-26T19:01:19.565Z,4.77
2022-11-26T19:03:47.339Z,4.78
2022-11-26T19:06:17.885Z,4.68
2022-11-26T19:08:46.628Z,4.72
2022-11-26T19:11:18.424Z,4.74
2022-11-26T19:13:46.632Z,4.68
2022-11-26T19:16:16.894Z,4.64
2022-11-26T19:18:45.811Z,4.65
2022-11-26T19:21:33.592Z,4.69
2022-11-26T19:24:04.651Z,4.60
2022-11-26T19:26:32.706Z,4.66
2022-11-26T19:29:02.851Z,4.69
2022-11-26T19:31:36.107Z,4.69
2022-11-26T19:34:10.039Z,4.63
2022-11-26T19:36:37.990Z,4.62
2022-11-26T19:39:07.410Z,4.64
2022-11-26T19:41:34.956Z,4.58
2022-11-26T19:44:05.387Z,4.60
2022-11-26T19:46:36.761Z,4.64
2022-11-26T19:49:04.356Z,4.63
2022-11-26T19:51:31.985Z,4.57
2022-11-26T19:53:59.574Z,4.50
2022-11-26T19:56:31.570Z,4.48
2022-11-26T19:59:02.177Z,4.43
2022-11-26T20:01:31.764Z,4.54
2022-11-26T20:04:01.172Z,4.55
2022-11-26T20:06:30.369Z,4.55
2022-11-26T20:08:59.151Z,4.56
2022-11-26T20:11:29.137Z,4.58
2022-11-26T20:13:57.832Z,4.57
2022-11-26T20:16:31.142Z,4.60
2022-11-26T20:19:01.219Z,4.62
2022-11-26T20:21:32.464Z,4.58
2022-11-26T20:24:03.190Z,4.63
2022-11-26T20:26:36.862Z,4.54
2022-11-26T20:29:08.009Z,4.55
2022-11-26T20:31:40.534Z,4.49
2022-11-26T20:34:08.139Z,4.49
2022-11-26T20:36:35.951Z,4.47
2022-11-26T20:39:04.403Z,4.47
2022-11-26T20:41:32.102Z,4.51
2022-11-26T20:43:59.959Z,4.49
2022-11-26T20:46:28.729Z,4.47
2022-11-26T20:48:58.156Z,4.42
2022-11-26T20:51:25.860Z,4.31
2022-11-26T20:53:53.727Z,4.30
2022-11-26T20:56:22.260Z,4.37
2022-11-26T20:58:51.301Z,4.38
2022-11-26T21:01:25.624Z,4.39
2022-11-26T21:03:53.855Z,4.38
2022-11-26T21:06:29.352Z,4.35
2022-11-26T21:09:04.076Z,4.41
2022-11-26T21:11:32.236Z,4.35
2022-11-26T21:14:01.747Z,4.31
2022-11-26T21:16:31.123Z,4.31
2022-11-26T21:18:59.940Z,4.38
2022-11-26T21:21:29.126Z,4.42
2022-11-26T21:23:57.943Z,4.39
2022-11-26T21:26:26.777Z,4.51
2022-11-26T21:28:57.133Z,4.48
2022-11-26T21:31:26.577Z,4.58
2022-11-26T21:34:05.502Z,4.59
2022-11-26T21:36:34.935Z,4.61
2022-11-26T21:39:03.983Z,4.61
2022-11-26T21:41:33.641Z,4.52
2022-11-26T21:44:04.353Z,4.48
2022-11-26T21:46:38.147Z,4.51
2022-11-26T21:49:08.271Z,4.53
2022-11-26T21:51:36.083Z,4.53
2022-11-26T21:54:04.037Z,4.50
2022-11-26T21:56:32.609Z,4.48
2022-11-26T21:59:01.410Z,4.43
2022-11-26T22:01:35.978Z,4.44
2022-11-26T22:04:10.822Z,4.48
2022-11-26T22:06:39.698Z,4.36
2022-11-26T22:09:08.652Z,4.50
2022-11-26T22:11:39.654Z,4.42
2022-11-26T22:14:08.622Z,4.34
2022-11-26T22:16:36.737Z,4.29
2022-11-26T22:19:10.081Z,4.33
2022-11-26T22:21:40.666Z,4.37
2022-11-26T22:24:13.710Z,4.43
2022-11-26T22:26:44.456Z,4.39
2022-11-26T22:29:13.955Z,4.41
2022-11-26T22:31:42.143Z,4.36
2022-11-26T22:34:15.146Z,4.33
2022-11-26T22:36:44.295Z,4.41
2022-11-26T22:39:15.072Z,4.37
2022-11-26T22:41:43.858Z,4.31
2022-11-26T22:44:12.435Z,4.27
2022-11-26T22:46:40.778Z,4.24
2022-11-26T22:49:13.357Z,4.35
2022-11-26T22:51:43.455Z,4.39
2022-11-26T22:54:13.487Z,4.41
2022-11-26T22:56:41.862Z,4.47
2022-11-26T22:59:13.071Z,4.43
2022-11-26T23:01:41.649Z,4.35
2022-11-26T23:04:11.144Z,4.41
2022-11-26T23:06:39.255Z,4.34
2022-11-26T23:09:09.220Z,4.36
2022-11-26T23:11:39.702Z,4.35
2022-11-26T23:14:09.604Z,4.34
2022-11-26T23:16:40.656Z,4.31
2022-11-26T23:19:09.837Z,4.28
2022-11-26T23:21:40.229Z,4.16
2022-11-26T23:24:08.698Z,4.09
2022-11-26T23:26:38.148Z,4.14
2022-11-26T23:29:06.741Z,4.07
2022-11-26T23:31:37.145Z,4.13
2022-11-26T23:34:05.285Z,4.21
2022-11-26T23:36:33.757Z,4.25
2022-11-26T23:39:04.667Z,4.05
2022-11-26T23:41:32.460Z,3.99
2022-11-26T23:44:00.394Z,4.04
2022-11-26T23:46:31.293Z,4.09
2022-11-26T23:48:59.435Z,4.16
2022-11-26T23:51:29.967Z,4.23
2022-11-26T23:53:58.436Z,4.22
2022-11-26T23:56:32.429Z,4.11
2022-11-26T23:59:02.776Z,4.01
